createdAt,value
2023-07-19T00:00:10.362Z,3.83
2023-07-19T00:05:24.982Z,3.63
2023-07-19T00:10:30.545Z,3.88
2023-07-19T00:15:35.063Z,4.03
2023-07-19T00:20:40.519Z,3.85
2023-07-19T00:25:46.813Z,4.40
2023-07-19T00:30:51.852Z,3.97
2023-07-19T00:35:57.731Z,4.53
2023-07-19T00:41:02.153Z,3.72
2023-07-19T00:46:10.143Z,3.60
2023-07-19T00:51:21.200Z,3.72
2023-07-19T00:56:26.289Z,4.05
2023-07-19T01:01:30.745Z,3.92
2023-07-19T01:06:39.485Z,3.90
2023-07-19T01:11:43.640Z,4.13
2023-07-19T01:16:48.311Z,4.70
2023-07-19T01:21:58.012Z,4.50
2023-07-19T01:27:20.624Z,4.25
2023-07-19T01:32:27.138Z,4.00
2023-07-19T01:37:31.345Z,3.88
2023-07-19T01:42:36.966Z,4.13
2023-07-19T01:47:41.220Z,3.92
2023-07-19T01:52:45.329Z,4.22
2023-07-19T01:57:51.145Z,4.25
2023-07-19T02:02:55.412Z,4.60
2023-07-19T02:07:59.654Z,4.05
2023-07-19T02:13:05.434Z,4.30
2023-07-19T02:18:10.130Z,4.88
2023-07-19T02:23:15.554Z,4.43
2023-07-19T02:28:21.547Z,3.35
2023-07-19T02:33:25.728Z,4.10
2023-07-19T02:38:30.407Z,4.55
2023-07-19T02:43:36.057Z,3.95
2023-07-19T02:48:40.847Z,4.38
2023-07-19T02:53:44.990Z,4.57
2023-07-19T02:58:50.705Z,4.45
2023-07-19T03:03:55.119Z,4.47
2023-07-19T03:08:59.544Z,4.70
2023-07-19T03:14:05.447Z,3.88
2023-07-19T03:19:13.844Z,5.00
2023-07-19T03:24:18.901Z,3.85
2023-07-19T03:29:27.018Z,4.65
2023-07-19T03:34:31.219Z,4.93
2023-07-19T03:39:36.487Z,5.88
2023-07-19T03:44:42.474Z,4.72
2023-07-19T03:49:47.068Z,5.88
2023-07-19T03:54:52.552Z,5.25
2023-07-19T04:00:05.110Z,4.97
2023-07-19T04:05:21.293Z,4.88
2023-07-19T04:10:26.268Z,5.95
2023-07-19T04:15:31.757Z,5.43
2023-07-19T04:20:37.957Z,5.18
2023-07-19T04:25:42.443Z,4.88
2023-07-19T04:30:51.596Z,4.75
2023-07-19T04:41:05.005Z,4.30
2023-07-19T04:46:12.224Z,4.38
2023-07-19T04:51:17.956Z,5.43
2023-07-19T04:56:22.848Z,4.65
2023-07-19T05:01:29.022Z,5.22
2023-07-19T05:06:33.864Z,4.40
2023-07-19T05:11:38.393Z,4.32
2023-07-19T05:16:44.109Z,3.90
2023-07-19T05:21:48.353Z,4.65
2023-07-19T05:26:53.522Z,4.55
2023-07-19T05:31:59.218Z,4.32
2023-07-19T05:37:05.076Z,4.22
2023-07-19T05:42:10.902Z,4.82
2023-07-19T05:47:17.318Z,5.30
2023-07-19T05:52:21.500Z,4.63
2023-07-19T05:57:26.573Z,5.60
2023-07-19T06:02:47.468Z,4.88
2023-07-19T06:08:09.982Z,4.95
2023-07-19T06:13:23.475Z,4.82
2023-07-19T06:18:29.223Z,5.25
2023-07-19T06:23:33.457Z,4.70
2023-07-19T06:28:37.804Z,4.00
2023-07-19T06:33:43.462Z,5.00
2023-07-19T06:38:48.840Z,4.55
2023-07-19T06:43:56.027Z,4.88
2023-07-19T06:49:01.941Z,4.35
2023-07-19T06:54:15.010Z,5.28
2023-07-19T06:59:20.190Z,4.65
2023-07-19T07:04:26.356Z,5.10
2023-07-19T07:09:31.038Z,4.18
2023-07-19T07:14:35.718Z,4.70
2023-07-19T07:19:45.551Z,4.85
2023-07-19T07:24:49.986Z,4.25
2023-07-19T07:29:54.270Z,4.10
2023-07-19T07:35:00.216Z,4.32
2023-07-19T07:40:06.266Z,3.35
2023-07-19T07:45:11.423Z,4.20
2023-07-19T07:50:21.519Z,3.80
2023-07-19T07:55:26.538Z,4.13
2023-07-19T08:00:30.906Z,4.18
2023-07-19T08:05:36.578Z,3.95
2023-07-19T08:10:41.324Z,3.95
2023-07-19T08:15:45.414Z,4.10
2023-07-19T08:20:52.164Z,3.67
2023-07-19T08:26:00.183Z,3.75
2023-07-19T08:36:12.860Z,3.35
2023-07-19T08:41:23.730Z,3.63
2023-07-19T08:46:29.644Z,4.57
2023-07-19T08:51:36.602Z,3.63
2023-07-19T08:56:41.050Z,3.28
2023-07-19T09:01:47.677Z,3.17
2023-07-19T09:06:53.216Z,3.42
2023-07-19T09:11:58.609Z,3.58
2023-07-19T09:17:06.541Z,3.17
2023-07-19T09:22:12.544Z,3.30
2023-07-19T09:27:25.948Z,3.00
2023-07-19T09:32:30.577Z,3.40
2023-07-19T09:37:38.028Z,2.95
2023-07-19T09:42:44.123Z,3.55
2023-07-19T09:47:48.461Z,3.75
2023-07-19T09:52:55.704Z,3.47
2023-07-19T09:58:01.677Z,3.40
2023-07-19T10:03:08.824Z,3.42
2023-07-19T10:08:14.359Z,3.70
2023-07-19T10:13:19.602Z,3.38
2023-07-19T10:18:25.951Z,3.28
2023-07-19T10:23:37.879Z,3.72
2023-07-19T10:28:43.742Z,3.47
2023-07-19T10:33:51.135Z,3.17
2023-07-19T10:38:57.263Z,2.97
2023-07-19T10:44:07.593Z,4.05
2023-07-19T10:49:11.930Z,3.88
2023-07-19T10:54:19.211Z,3.17
2023-07-19T10:59:24.675Z,3.85
2023-07-19T11:04:31.540Z,4.30
2023-07-19T11:09:37.581Z,4.47
2023-07-19T11:14:45.682Z,4.68
2023-07-19T11:19:50.665Z,4.35
2023-07-19T11:24:57.747Z,4.78
2023-07-19T11:30:03.453Z,4.10
2023-07-19T11:35:08.686Z,3.97
2023-07-19T11:40:17.784Z,4.90
2023-07-19T11:45:25.804Z,4.70
2023-07-19T11:50:31.277Z,4.75
2023-07-19T11:55:45.684Z,4.45
2023-07-19T12:00:53.837Z,4.68
2023-07-19T12:06:07.650Z,4.45
2023-07-19T12:11:30.994Z,4.47
2023-07-19T12:16:42.377Z,5.10
2023-07-19T12:21:51.277Z,4.68
2023-07-19T12:27:00.796Z,5.03
2023-07-19T12:32:05.429Z,5.03
2023-07-19T12:37:11.713Z,4.40
2023-07-19T12:42:18.282Z,4.43
2023-07-19T12:47:22.569Z,4.73
2023-07-19T12:52:37.995Z,4.95
2023-07-19T12:57:52.498Z,4.95
2023-07-19T13:02:57.831Z,4.53
2023-07-19T13:08:02.348Z,4.00
2023-07-19T13:13:09.346Z,3.75
2023-07-19T13:18:13.684Z,4.55
2023-07-19T13:23:18.517Z,4.78
2023-07-19T13:28:24.575Z,4.13
2023-07-19T13:33:28.892Z,3.80
2023-07-19T13:38:36.447Z,4.95
2023-07-19T13:43:48.238Z,5.00
2023-07-19T13:48:52.678Z,4.63
2023-07-19T13:53:56.818Z,4.93
2023-07-19T13:59:02.959Z,4.75
2023-07-19T14:04:08.110Z,5.00
2023-07-19T14:09:12.817Z,5.20
2023-07-19T14:14:19.086Z,5.10
2023-07-19T14:19:23.358Z,5.13
2023-07-19T14:24:28.576Z,5.20
2023-07-19T14:29:34.417Z,5.18
2023-07-19T14:34:39.839Z,5.25
2023-07-19T14:39:50.924Z,5.75
2023-07-19T14:44:58.484Z,4.38
2023-07-19T14:50:03.219Z,5.13
2023-07-19T14:55:09.015Z,4.95
2023-07-19T15:00:16.754Z,6.75
2023-07-19T15:05:21.431Z,5.18
2023-07-19T15:10:25.781Z,5.18
2023-07-19T15:15:32.349Z,5.15
2023-07-19T15:20:37.500Z,5.33
2023-07-19T15:25:42.024Z,5.15
2023-07-19T15:30:48.181Z,5.68
2023-07-19T15:35:53.716Z,4.65
2023-07-19T15:40:58.296Z,4.72
2023-07-19T15:46:05.027Z,5.25
2023-07-19T15:51:10.024Z,5.23
2023-07-19T15:56:14.138Z,4.97
2023-07-19T16:01:21.071Z,5.25
2023-07-19T16:06:25.779Z,4.72
2023-07-19T16:11:30.376Z,5.25
2023-07-19T16:16:36.698Z,4.97
2023-07-19T16:21:41.001Z,4.72
2023-07-19T16:26:45.571Z,5.10
2023-07-19T16:31:51.577Z,4.97
2023-07-19T16:36:57.138Z,5.18
2023-07-19T16:42:02.551Z,5.20
2023-07-19T16:47:10.317Z,5.03
2023-07-19T16:52:16.254Z,5.55
2023-07-19T16:57:20.487Z,5.93
2023-07-19T17:02:27.221Z,5.30
2023-07-19T17:07:33.938Z,4.57
2023-07-19T17:12:38.865Z,5.65
2023-07-19T17:17:44.587Z,5.90
2023-07-19T17:22:49.142Z,5.20
2023-07-19T17:27:54.144Z,5.85
2023-07-19T17:33:00.403Z,5.15
2023-07-19T17:38:05.193Z,4.82
2023-07-19T17:43:13.105Z,5.93
2023-07-19T17:48:19.265Z,5.90
2023-07-19T17:53:23.546Z,5.43
2023-07-19T17:58:28.131Z,5.25
2023-07-19T18:03:34.680Z,5.30
2023-07-19T18:08:39.124Z,5.68
2023-07-19T18:13:43.349Z,5.63
2023-07-19T18:18:49.194Z,5.65
2023-07-19T18:23:53.859Z,6.03
2023-07-19T18:28:58.685Z,5.43
2023-07-19T18:34:04.570Z,5.80
2023-07-19T18:39:10.359Z,5.72
2023-07-19T18:44:15.044Z,6.05
2023-07-19T18:49:21.410Z,5.72
2023-07-19T18:54:29.647Z,6.20
2023-07-19T18:59:36.170Z,5.50
2023-07-19T19:04:41.917Z,5.60
2023-07-19T19:09:46.239Z,5.32
2023-07-19T19:14:54.574Z,5.50
2023-07-19T19:20:00.399Z,5.47
2023-07-19T19:25:04.862Z,5.93
2023-07-19T19:30:10.394Z,5.78
2023-07-19T19:35:16.697Z,5.78
2023-07-19T19:40:21.496Z,6.10
2023-07-19T19:45:25.640Z,5.28
2023-07-19T19:50:31.410Z,5.78
2023-07-19T20:00:44.180Z,5.90
2023-07-19T20:11:00.215Z,6.07
2023-07-19T20:16:04.439Z,5.63
2023-07-19T20:21:10.302Z,5.57
2023-07-19T20:26:15.454Z,5.40
2023-07-19T20:46:41.123Z,5.22
2023-07-19T20:51:47.252Z,5.25
2023-07-19T20:56:51.325Z,5.82
2023-07-19T21:01:55.665Z,6.25
2023-07-19T21:07:01.307Z,5.28
2023-07-19T21:12:08.725Z,5.13
2023-07-19T21:17:13.090Z,6.30
2023-07-19T21:22:18.879Z,5.65
2023-07-19T21:27:25.503Z,6.25
2023-07-19T21:32:30.458Z,4.80
2023-07-19T21:37:36.110Z,5.05
2023-07-19T21:42:40.378Z,5.00
2023-07-19T21:47:44.932Z,5.50
2023-07-19T21:52:51.659Z,4.93
2023-07-19T21:57:55.898Z,5.40
2023-07-19T22:03:00.229Z,5.00
2023-07-19T22:08:06.159Z,5.43
2023-07-19T22:13:11.272Z,5.03
2023-07-19T22:18:20.051Z,5.05
2023-07-19T22:23:25.943Z,5.60
2023-07-19T22:28:30.554Z,5.38
2023-07-19T22:33:34.843Z,5.60
2023-07-19T22:38:40.721Z,5.32
2023-07-19T22:43:44.946Z,12.95
2023-07-19T22:48:51.743Z,8.00
2023-07-19T22:53:57.294Z,6.03
2023-07-19T22:59:02.131Z,5.07
2023-07-19T23:04:06.606Z,5.50
2023-07-19T23:09:12.139Z,4.05
2023-07-19T23:14:16.664Z,4.20
2023-07-19T23:19:21.193Z,4.22
2023-07-19T23:24:29.322Z,3.95
2023-07-19T23:29:34.588Z,4.40
2023-07-19T23:34:38.936Z,4.05
2023-07-19T23:39:44.489Z,4.22
2023-07-19T23:44:53.444Z,4.75
2023-07-19T23:49:59.551Z,3.33
2023-07-19T23:55:06.345Z,2.63
